Eldridge, North Dakota
Current Conditions -  °F | °C
As of 9:56 AM on Thursday 23 Oct 2014 (Local Time) from KJMS Reporting Station
Clear Clear  
Wind Chill: 45°   Ceiling: Unl
Heat Index: 49°   Visibility: 10mi
Dew Point: 38°   Wind: 9mph
Humidity: 66%   Direction: 240°WSW
Pressure: 29.91"   Gusts: NA
Location:  46.8494°N, 98.7424°W
Report Text: KJMS 231456Z AUTO 24008KT 10SM CLR 09/03 A2991 RMK AO2 SLP135 T00940033 50003
Loading
Personal Weather Stations






























Interactive Weather Map
Tropical Storm Tracking
New forecast layout! Learn more

10-Day Weather Forecast

Advertisements
Track Severe Weather on mobile